Impacts TAF Board INFO
FOR SITUATIONAL AWARENESS. NOT TO BE USED FOR FLIGHT PLANNING PURPOSES.
IDs:

KEWR - Newark Intl, NJ, US

Issued at 0325 UTC 23 May 2018
Updated at 0325 UTC 23 May 2018
Potential Impact None Slight Moderate High
Time<<24/04Z 24/05Z 24/06Z 24/07Z 24/08Z 24/09Z 24/10Z 24/11Z 24/12Z 24/13Z 24/14Z 24/15Z 24/16Z
Type PRVL PRVL
VIS >6 >6
CIG -- --
Cover SKC SKC
FltCat VFR VFR
WX -- --
WDir 290 290
WSpd 7 7
WGst -- --

Raw TAF
KEWR 230325Z 2303/2406 VRB04KT 6SM BR OVC006
  FM230500 VRB04KT 3SM BR VCTS OVC005CB
  FM230700 VRB04KT 2SM BR VCSH BKN005 OVC015
  FM231200 28004KT 4SM BR SCT015 BKN040
  TEMPO 2312/2314 BKN015
  FM231400 33008KT P6SM SCT020 SCT090
  FM231600 33010KT P6SM FEW040 SCT100
  FM231800 32010KT P6SM FEW050
  FM240000 29007KT P6SM SKC


METAR Board
Radar Display
Forecast Discussion

FOR SITUATIONAL AWARENESS. NOT TO BE USED FOR FLIGHT PLANNING PURPOSES.